Chestnut, Illinois
Current Conditions -  °F | °C
As of 7:35 AM on Wednesday 22 Oct 2014 (Local Time) from KAAA Reporting Station
Haze Haze  
Wind Chill: 35°   Ceiling: Unl
Heat Index: 35°   Visibility: 5mi
Dew Point: 34°   Wind: 0mph
Humidity: 97%   Direction: NA
Pressure: 30.32"   Gusts: NA
Location:  40.05°N, 89.19°W
Report Text: KAAA 221235Z AUTO 00000KT 5SM BR CLR 02/01 A3032 RMK AO2 T00160011
Loading
Personal Weather Stations






























Interactive Weather Map
Tropical Storm Tracking
New forecast layout! Learn more

10-Day Weather Forecast

Advertisements
Track Severe Weather on mobile